Terminal Aerodrome Forecast
Issued by NWS Rapid City, SD

Home | Current Version | Previous Version | Graphics & Text | Print | Product List | Glossary On
Versions: 1 2 3 4 5 6 7 8 9 10 11 12 13 14 15 16 17 18 19 20
000
FTUS43 KUNR 252327
TAFRAP
TAF
KRAP 252327Z 2600/2624 34010KT P6SM BKN150
     FM261000 35014G22KT P6SM -RA SCT015 OVC040
     FM261500 35016KT P6SM -RA OVC015
     FM262200 36008KT P6SM BKN020=

USA.gov is the U.S. government's official web portal to all federal, state and local government web resources and services.